sensor_id;sensor_type;location;lat;lon;timestamp;pressure;altitude;pressure_sealevel;temperature;humidity
20987;BME280;10652;50.306;8.570;2023-04-15T00:03:51;97104.53;;;3.82;78.29
20987;BME280;10652;50.306;8.570;2023-04-15T00:07:54;97105.38;;;3.83;78.07
20987;BME280;10652;50.306;8.570;2023-04-15T00:11:56;97113.66;;;3.69;77.61
20987;BME280;10652;50.306;8.570;2023-04-15T00:15:58;97113.44;;;3.51;78.60
20987;BME280;10652;50.306;8.570;2023-04-15T00:20:00;97114.13;;;3.56;78.57
20987;BME280;10652;50.306;8.570;2023-04-15T00:24:02;97106.06;;;3.38;77.87
20987;BME280;10652;50.306;8.570;2023-04-15T00:28:04;97106.25;;;3.32;78.85
20987;BME280;10652;50.306;8.570;2023-04-15T00:32:09;97097.88;;;3.24;79.22
20987;BME280;10652;50.306;8.570;2023-04-15T00:36:11;97097.78;;;3.27;79.91
20987;BME280;10652;50.306;8.570;2023-04-15T00:40:16;97091.69;;;3.28;80.10
20987;BME280;10652;50.306;8.570;2023-04-15T00:44:19;97086.38;;;3.31;79.59
20987;BME280;10652;50.306;8.570;2023-04-15T00:48:21;97077.94;;;3.26;80.10
20987;BME280;10652;50.306;8.570;2023-04-15T00:52:24;97088.97;;;3.31;79.80
20987;BME280;10652;50.306;8.570;2023-04-15T00:56:27;97078.03;;;3.23;79.39
20987;BME280;10652;50.306;8.570;2023-04-15T01:00:30;97085.81;;;3.23;79.96
20987;BME280;10652;50.306;8.570;2023-04-15T01:04:33;97090.28;;;3.18;79.79
20987;BME280;10652;50.306;8.570;2023-04-15T01:08:35;97086.63;;;3.25;80.69
20987;BME280;10652;50.306;8.570;2023-04-15T01:12:37;97085.63;;;3.03;78.98
20987;BME280;10652;50.306;8.570;2023-04-15T01:16:41;97079.34;;;2.84;80.16
20987;BME280;10652;50.306;8.570;2023-04-15T01:20:43;97087.72;;;2.92;81.64
20987;BME280;10652;50.306;8.570;2023-04-15T01:24:54;97093.44;;;3.02;82.41
20987;BME280;10652;50.306;8.570;2023-04-15T01:28:57;97089.22;;;2.99;81.45
20987;BME280;10652;50.306;8.570;2023-04-15T01:32:59;97089.53;;;2.90;80.51
20987;BME280;10652;50.306;8.570;2023-04-15T01:37:02;97091.59;;;2.79;82.07
20987;BME280;10652;50.306;8.570;2023-04-15T01:41:04;97086.00;;;2.91;81.99
20987;BME280;10652;50.306;8.570;2023-04-15T01:45:08;97093.50;;;3.00;82.18
20987;BME280;10652;50.306;8.570;2023-04-15T01:49:12;97079.75;;;2.98;81.63
20987;BME280;10652;50.306;8.570;2023-04-15T01:53:14;97083.78;;;2.80;81.52
20987;BME280;10652;50.306;8.570;2023-04-15T01:57:16;97085.66;;;2.75;81.97
20987;BME280;10652;50.306;8.570;2023-04-15T02:01:19;97076.72;;;2.58;82.23
20987;BME280;10652;50.306;8.570;2023-04-15T02:05:21;97082.31;;;2.72;84.03
20987;BME280;10652;50.306;8.570;2023-04-15T02:09:24;97091.31;;;2.88;84.00
20987;BME280;10652;50.306;8.570;2023-04-15T02:13:26;97089.22;;;2.99;83.26
20987;BME280;10652;50.306;8.570;2023-04-15T02:17:33;97088.75;;;2.86;81.58
20987;BME280;10652;50.306;8.570;2023-04-15T02:21:36;97093.06;;;2.60;81.68
20987;BME280;10652;50.306;8.570;2023-04-15T02:25:38;97099.84;;;2.64;83.17
20987;BME280;10652;50.306;8.570;2023-04-15T02:29:40;97097.06;;;2.70;83.84
20987;BME280;10652;50.306;8.570;2023-04-15T02:33:42;97092.63;;;2.73;82.58
20987;BME280;10652;50.306;8.570;2023-04-15T02:37:44;97100.66;;;2.66;82.60
20987;BME280;10652;50.306;8.570;2023-04-15T02:41:47;97098.09;;;2.64;82.86
20987;BME280;10652;50.306;8.570;2023-04-15T02:45:52;97096.97;;;2.73;82.84
20987;BME280;10652;50.306;8.570;2023-04-15T02:49:55;97105.94;;;2.63;81.30
20987;BME280;10652;50.306;8.570;2023-04-15T02:53:59;97100.66;;;2.66;81.89
20987;BME280;10652;50.306;8.570;2023-04-15T02:58:02;97098.94;;;2.65;81.17
20987;BME280;10652;50.306;8.570;2023-04-15T03:02:05;97099.16;;;2.59;80.95
20987;BME280;10652;50.306;8.570;2023-04-15T03:06:08;97102.06;;;2.48;80.82
20987;BME280;10652;50.306;8.570;2023-04-15T03:10:11;97102.31;;;2.40;81.03
20987;BME280;10652;50.306;8.570;2023-04-15T03:14:13;97105.78;;;2.39;81.90
20987;BME280;10652;50.306;8.570;2023-04-15T03:18:19;97096.13;;;2.44;82.29
20987;BME280;10652;50.306;8.570;2023-04-15T03:22:22;97097.00;;;2.45;81.92
20987;BME280;10652;50.306;8.570;2023-04-15T03:26:30;97090.13;;;2.42;81.51
20987;BME280;10652;50.306;8.570;2023-04-15T03:30:36;97083.66;;;2.28;81.40
20987;BME280;10652;50.306;8.570;2023-04-15T03:34:38;97081.41;;;2.17;82.21
20987;BME280;10652;50.306;8.570;2023-04-15T03:38:40;97081.72;;;2.07;83.02
20987;BME280;10652;50.306;8.570;2023-04-15T03:42:42;97086.97;;;2.03;83.85
20987;BME280;10652;50.306;8.570;2023-04-15T03:46:44;97079.16;;;2.05;83.59
20987;BME280;10652;50.306;8.570;2023-04-15T03:50:46;97080.97;;;2.01;83.96
20987;BME280;10652;50.306;8.570;2023-04-15T03:54:49;97080.84;;;2.06;85.20
20987;BME280;10652;50.306;8.570;2023-04-15T03:58:51;97077.06;;;2.18;84.52
20987;BME280;10652;50.306;8.570;2023-04-15T04:02:53;97075.25;;;2.21;84.26
20987;BME280;10652;50.306;8.570;2023-04-15T04:06:55;97069.94;;;2.24;83.98
20987;BME280;10652;50.306;8.570;2023-04-15T04:10:57;97059.75;;;2.18;83.54
20987;BME280;10652;50.306;8.570;2023-04-15T04:14:59;97066.72;;;2.18;83.23
20987;BME280;10652;50.306;8.570;2023-04-15T04:19:01;97070.63;;;2.01;82.64
20987;BME280;10652;50.306;8.570;2023-04-15T04:23:04;97073.25;;;2.00;83.87
20987;BME280;10652;50.306;8.570;2023-04-15T04:27:06;97077.38;;;2.07;83.40
20987;BME280;10652;50.306;8.570;2023-04-15T04:31:08;97082.00;;;1.96;83.61
20987;BME280;10652;50.306;8.570;2023-04-15T04:35:10;97075.16;;;1.95;83.94
20987;BME280;10652;50.306;8.570;2023-04-15T04:39:12;97071.47;;;2.02;85.40
20987;BME280;10652;50.306;8.570;2023-04-15T04:43:14;97080.34;;;1.95;84.44
20987;BME280;10652;50.306;8.570;2023-04-15T04:47:16;97080.97;;;2.01;86.58
20987;BME280;10652;50.306;8.570;2023-04-15T04:51:19;97077.09;;;2.16;87.02
20987;BME280;10652;50.306;8.570;2023-04-15T04:55:21;97082.75;;;2.30;86.72
20987;BME280;10652;50.306;8.570;2023-04-15T04:59:23;97084.06;;;2.43;86.80
20987;BME280;10652;50.306;8.570;2023-04-15T05:03:25;97084.50;;;2.58;86.87
20987;BME280;10652;50.306;8.570;2023-04-15T05:07:28;97079.81;;;2.69;85.67
20987;BME280;10652;50.306;8.570;2023-04-15T05:11:30;97084.91;;;2.72;85.53
20987;BME280;10652;50.306;8.570;2023-04-15T05:15:32;97090.03;;;2.73;85.32
20987;BME280;10652;50.306;8.570;2023-04-15T05:19:36;97091.56;;;2.80;85.28
20987;BME280;10652;50.306;8.570;2023-04-15T05:23:38;97093.72;;;2.94;85.70
20987;BME280;10652;50.306;8.570;2023-04-15T05:27:40;97102.13;;;3.01;84.84
20987;BME280;10652;50.306;8.570;2023-04-15T05:31:42;97103.22;;;2.93;84.44
20987;BME280;10652;50.306;8.570;2023-04-15T05:35:44;97104.63;;;3.04;85.03
20987;BME280;10652;50.306;8.570;2023-04-15T05:39:47;97100.47;;;3.24;85.34
20987;BME280;10652;50.306;8.570;2023-04-15T05:43:49;97093.09;;;3.38;84.69
20987;BME280;10652;50.306;8.570;2023-04-15T05:47:51;97106.34;;;3.31;83.14
20987;BME280;10652;50.306;8.570;2023-04-15T05:51:55;97111.56;;;3.29;84.48
20987;BME280;10652;50.306;8.570;2023-04-15T05:55:57;97115.16;;;3.50;85.64
20987;BME280;10652;50.306;8.570;2023-04-15T05:59:59;97123.19;;;3.69;85.57
20987;BME280;10652;50.306;8.570;2023-04-15T06:04:01;97119.22;;;3.83;86.42
20987;BME280;10652;50.306;8.570;2023-04-15T06:08:04;97125.31;;;4.07;87.55
20987;BME280;10652;50.306;8.570;2023-04-15T06:12:06;97122.75;;;4.31;88.08
20987;BME280;10652;50.306;8.570;2023-04-15T06:16:12;97125.22;;;4.57;88.32
20987;BME280;10652;50.306;8.570;2023-04-15T06:20:15;97128.44;;;4.85;87.62
20987;BME280;10652;50.306;8.570;2023-04-15T06:24:17;97137.38;;;5.00;85.93
20987;BME280;10652;50.306;8.570;2023-04-15T06:28:19;97133.34;;;5.14;85.47
20987;BME280;10652;50.306;8.570;2023-04-15T06:32:21;97139.56;;;5.32;84.76
20987;BME280;10652;50.306;8.570;2023-04-15T06:36:23;97137.94;;;5.50;84.83
20987;BME280;10652;50.306;8.570;2023-04-15T06:40:25;97141.03;;;5.80;84.84
20987;BME280;10652;50.306;8.570;2023-04-15T06:44:28;97146.72;;;6.28;84.13
20987;BME280;10652;50.306;8.570;2023-04-15T06:48:32;97145.47;;;6.76;82.83
20987;BME280;10652;50.306;8.570;2023-04-15T06:52:35;97138.75;;;7.08;83.03
20987;BME280;10652;50.306;8.570;2023-04-15T06:56:37;97143.97;;;7.08;81.57
20987;BME280;10652;50.306;8.570;2023-04-15T07:00:39;97153.47;;;7.09;80.90
20987;BME280;10652;50.306;8.570;2023-04-15T07:04:41;97147.44;;;7.08;81.71
20987;BME280;10652;50.306;8.570;2023-04-15T07:08:43;97150.41;;;7.18;83.11
20987;BME280;10652;50.306;8.570;2023-04-15T07:12:47;97156.28;;;7.23;81.35
20987;BME280;10652;50.306;8.570;2023-04-15T07:16:49;97155.75;;;7.33;82.89
20987;BME280;10652;50.306;8.570;2023-04-15T07:20:51;97155.38;;;7.41;81.86
20987;BME280;10652;50.306;8.570;2023-04-15T07:24:53;97152.88;;;7.57;81.41
20987;BME280;10652;50.306;8.570;2023-04-15T07:28:55;97154.50;;;7.76;81.19
20987;BME280;10652;50.306;8.570;2023-04-15T07:32:58;97149.34;;;7.92;80.13
20987;BME280;10652;50.306;8.570;2023-04-15T07:37:00;97156.66;;;8.03;78.33
20987;BME280;10652;50.306;8.570;2023-04-15T07:41:02;97153.69;;;8.09;76.76
20987;BME280;10652;50.306;8.570;2023-04-15T07:45:05;97153.56;;;8.12;74.63
20987;BME280;10652;50.306;8.570;2023-04-15T07:49:07;97155.16;;;8.14;73.85
20987;BME280;10652;50.306;8.570;2023-04-15T07:53:10;97152.22;;;8.22;72.25
20987;BME280;10652;50.306;8.570;2023-04-15T07:57:12;97149.34;;;8.27;71.87
20987;BME280;10652;50.306;8.570;2023-04-15T08:01:14;97156.31;;;8.43;72.24
20987;BME280;10652;50.306;8.570;2023-04-15T08:05:16;97154.13;;;8.51;70.22
20987;BME280;10652;50.306;8.570;2023-04-15T08:09:18;97156.50;;;8.56;68.73
20987;BME280;10652;50.306;8.570;2023-04-15T08:13:20;97151.44;;;8.68;68.37
20987;BME280;10652;50.306;8.570;2023-04-15T08:17:23;97152.31;;;8.85;66.98
20987;BME280;10652;50.306;8.570;2023-04-15T08:21:25;97143.59;;;9.00;66.22
20987;BME280;10652;50.306;8.570;2023-04-15T08:25:28;97151.56;;;9.14;64.93
20987;BME280;10652;50.306;8.570;2023-04-15T08:29:33;97145.72;;;9.25;64.09
20987;BME280;10652;50.306;8.570;2023-04-15T08:33:35;97150.78;;;9.43;62.95
20987;BME280;10652;50.306;8.570;2023-04-15T08:37:37;97137.34;;;9.64;62.46
20987;BME280;10652;50.306;8.570;2023-04-15T08:41:45;97150.00;;;9.87;60.22
20987;BME280;10652;50.306;8.570;2023-04-15T08:45:51;97151.47;;;10.07;59.09
20987;BME280;10652;50.306;8.570;2023-04-15T08:49:54;97147.66;;;10.12;56.43
20987;BME280;10652;50.306;8.570;2023-04-15T08:53:56;97141.44;;;10.13;54.80
20987;BME280;10652;50.306;8.570;2023-04-15T08:57:58;97146.69;;;10.13;54.29
20987;BME280;10652;50.306;8.570;2023-04-15T09:02:02;97149.72;;;10.21;53.35
20987;BME280;10652;50.306;8.570;2023-04-15T09:06:05;97146.13;;;10.22;53.51
20987;BME280;10652;50.306;8.570;2023-04-15T09:10:08;97153.19;;;10.22;53.05
20987;BME280;10652;50.306;8.570;2023-04-15T09:14:11;97153.09;;;10.23;53.28
20987;BME280;10652;50.306;8.570;2023-04-15T09:18:29;97154.41;;;10.16;52.28
20987;BME280;10652;50.306;8.570;2023-04-15T09:22:32;97162.63;;;10.10;52.56
20987;BME280;10652;50.306;8.570;2023-04-15T09:26:36;97162.84;;;9.91;52.05
20987;BME280;10652;50.306;8.570;2023-04-15T09:30:41;97172.31;;;9.80;53.13
20987;BME280;10652;50.306;8.570;2023-04-15T09:34:47;97175.56;;;9.68;53.66
20987;BME280;10652;50.306;8.570;2023-04-15T09:38:57;97172.41;;;9.63;53.65
20987;BME280;10652;50.306;8.570;2023-04-15T09:42:59;97184.22;;;9.54;53.40
20987;BME280;10652;50.306;8.570;2023-04-15T09:47:02;97194.22;;;9.47;54.01
20987;BME280;10652;50.306;8.570;2023-04-15T09:51:04;97194.75;;;9.38;54.37
20987;BME280;10652;50.306;8.570;2023-04-15T09:55:07;97195.94;;;9.33;54.75
20987;BME280;10652;50.306;8.570;2023-04-15T09:59:09;97201.41;;;9.28;55.96
20987;BME280;10652;50.306;8.570;2023-04-15T10:03:11;97208.03;;;9.35;55.98
20987;BME280;10652;50.306;8.570;2023-04-15T10:07:14;97214.78;;;9.39;56.36
20987;BME280;10652;50.306;8.570;2023-04-15T10:11:19;97215.38;;;9.44;56.79
20987;BME280;10652;50.306;8.570;2023-04-15T10:15:24;97203.09;;;9.60;57.02
20987;BME280;10652;50.306;8.570;2023-04-15T10:19:30;97216.78;;;9.81;56.78
20987;BME280;10652;50.306;8.570;2023-04-15T10:23:32;97224.88;;;9.92;56.64
20987;BME280;10652;50.306;8.570;2023-04-15T10:27:35;97222.59;;;10.02;55.96
20987;BME280;10652;50.306;8.570;2023-04-15T10:31:38;97224.06;;;10.22;55.80
20987;BME280;10652;50.306;8.570;2023-04-15T10:35:41;97231.00;;;10.37;55.17
20987;BME280;10652;50.306;8.570;2023-04-15T10:39:44;97227.69;;;10.49;54.77
20987;BME280;10652;50.306;8.570;2023-04-15T10:48:02;97235.53;;;10.63;54.14
20987;BME280;10652;50.306;8.570;2023-04-15T10:52:07;97236.22;;;10.67;53.76
20987;BME280;10652;50.306;8.570;2023-04-15T10:56:09;97235.09;;;10.57;53.65
20987;BME280;10652;50.306;8.570;2023-04-15T11:00:14;97235.38;;;10.52;54.97
20987;BME280;10652;50.306;8.570;2023-04-15T11:08:56;97250.59;;;10.31;58.76
20987;BME280;10652;50.306;8.570;2023-04-15T11:17:03;97261.63;;;9.45;66.47
20987;BME280;10652;50.306;8.570;2023-04-15T11:21:06;97261.19;;;9.22;70.68
20987;BME280;10652;50.306;8.570;2023-04-15T11:25:09;97271.47;;;9.09;72.98
20987;BME280;10652;50.306;8.570;2023-04-15T11:29:16;97285.41;;;8.94;77.18
20987;BME280;10652;50.306;8.570;2023-04-15T11:33:18;97288.97;;;8.76;80.40
20987;BME280;10652;50.306;8.570;2023-04-15T11:37:27;97296.22;;;8.70;82.74
20987;BME280;10652;50.306;8.570;2023-04-15T11:41:30;97302.34;;;8.87;82.94
20987;BME280;10652;50.306;8.570;2023-04-15T11:45:32;97308.97;;;8.94;84.34
20987;BME280;10652;50.306;8.570;2023-04-15T11:49:34;97308.50;;;9.03;84.90
20987;BME280;10652;50.306;8.570;2023-04-15T11:53:44;97319.66;;;9.06;80.54
20987;BME280;10652;50.306;8.570;2023-04-15T11:57:47;97319.81;;;9.03;80.28
20987;BME280;10652;50.306;8.570;2023-04-15T12:01:49;97319.44;;;8.94;81.68
20987;BME280;10652;50.306;8.570;2023-04-15T12:10:17;97326.53;;;8.92;83.60
20987;BME280;10652;50.306;8.570;2023-04-15T12:14:26;97326.88;;;8.68;82.82
20987;BME280;10652;50.306;8.570;2023-04-15T12:18:32;97346.66;;;8.40;82.23
20987;BME280;10652;50.306;8.570;2023-04-15T12:22:36;97350.09;;;8.23;86.05
20987;BME280;10652;50.306;8.570;2023-04-15T12:26:47;97354.69;;;8.18;88.77
20987;BME280;10652;50.306;8.570;2023-04-15T12:30:49;97361.72;;;8.17;88.94
20987;BME280;10652;50.306;8.570;2023-04-15T12:34:54;97365.56;;;8.27;87.54
20987;BME280;10652;50.306;8.570;2023-04-15T12:38:56;97378.59;;;8.29;87.37
20987;BME280;10652;50.306;8.570;2023-04-15T12:42:58;97379.44;;;8.30;87.70
20987;BME280;10652;50.306;8.570;2023-04-15T12:47:00;97375.69;;;8.35;87.79
20987;BME280;10652;50.306;8.570;2023-04-15T12:51:03;97382.97;;;8.29;87.35
20987;BME280;10652;50.306;8.570;2023-04-15T12:55:06;97397.50;;;8.17;87.94
20987;BME280;10652;50.306;8.570;2023-04-15T12:59:09;97396.84;;;8.12;89.02
20987;BME280;10652;50.306;8.570;2023-04-15T13:03:11;97397.75;;;8.11;87.41
20987;BME280;10652;50.306;8.570;2023-04-15T13:07:13;97391.03;;;8.05;86.71
20987;BME280;10652;50.306;8.570;2023-04-15T13:11:16;97387.50;;;8.06;87.11
20987;BME280;10652;50.306;8.570;2023-04-15T13:15:18;97392.34;;;8.14;87.33
20987;BME280;10652;50.306;8.570;2023-04-15T13:19:23;97386.22;;;8.15;87.63
20987;BME280;10652;50.306;8.570;2023-04-15T13:23:25;97387.78;;;8.19;88.13
20987;BME280;10652;50.306;8.570;2023-04-15T13:27:27;97392.47;;;8.31;89.20
20987;BME280;10652;50.306;8.570;2023-04-15T13:31:29;97388.19;;;8.29;89.88
20987;BME280;10652;50.306;8.570;2023-04-15T13:35:32;97392.59;;;8.28;91.57
20987;BME280;10652;50.306;8.570;2023-04-15T13:39:34;97405.19;;;8.20;92.55
20987;BME280;10652;50.306;8.570;2023-04-15T13:43:36;97408.22;;;8.11;94.02
20987;BME280;10652;50.306;8.570;2023-04-15T13:47:39;97413.94;;;8.00;94.74
20987;BME280;10652;50.306;8.570;2023-04-15T13:51:41;97408.28;;;7.91;96.29
20987;BME280;10652;50.306;8.570;2023-04-15T13:55:43;97415.66;;;7.82;97.79
20987;BME280;10652;50.306;8.570;2023-04-15T13:59:45;97417.63;;;7.77;98.25
20987;BME280;10652;50.306;8.570;2023-04-15T14:03:47;97427.38;;;7.74;98.80
20987;BME280;10652;50.306;8.570;2023-04-15T14:07:50;97437.97;;;7.71;99.26
20987;BME280;10652;50.306;8.570;2023-04-15T14:11:52;97430.19;;;7.69;99.95
20987;BME280;10652;50.306;8.570;2023-04-15T14:15:55;97441.44;;;7.71;99.89
20987;BME280;10652;50.306;8.570;2023-04-15T14:19:57;97448.50;;;7.69;99.68
20987;BME280;10652;50.306;8.570;2023-04-15T14:23:59;97450.63;;;7.61;100.00
20987;BME280;10652;50.306;8.570;2023-04-15T14:28:02;97449.31;;;7.51;100.00
20987;BME280;10652;50.306;8.570;2023-04-15T14:32:04;97454.03;;;7.43;100.00
20987;BME280;10652;50.306;8.570;2023-04-15T14:36:13;97465.84;;;7.31;100.00
20987;BME280;10652;50.306;8.570;2023-04-15T14:40:15;97470.66;;;7.22;100.00
20987;BME280;10652;50.306;8.570;2023-04-15T14:44:17;97476.91;;;7.18;100.00
20987;BME280;10652;50.306;8.570;2023-04-15T14:48:19;97485.66;;;7.17;100.00
20987;BME280;10652;50.306;8.570;2023-04-15T14:52:21;97487.44;;;7.16;100.00
20987;BME280;10652;50.306;8.570;2023-04-15T14:56:23;97489.84;;;7.21;100.00
20987;BME280;10652;50.306;8.570;2023-04-15T15:00:26;97486.25;;;7.23;100.00
20987;BME280;10652;50.306;8.570;2023-04-15T15:04:28;97490.69;;;7.21;100.00
20987;BME280;10652;50.306;8.570;2023-04-15T15:08:30;97502.09;;;7.19;100.00
20987;BME280;10652;50.306;8.570;2023-04-15T15:12:32;97501.41;;;7.15;100.00
20987;BME280;10652;50.306;8.570;2023-04-15T15:16:34;97504.00;;;7.15;100.00
20987;BME280;10652;50.306;8.570;2023-04-15T15:20:37;97508.38;;;7.15;100.00
20987;BME280;10652;50.306;8.570;2023-04-15T15:24:40;97514.22;;;7.21;100.00
20987;BME280;10652;50.306;8.570;2023-04-15T15:28:42;97514.13;;;7.23;100.00
20987;BME280;10652;50.306;8.570;2023-04-15T15:32:46;97515.69;;;7.27;100.00
20987;BME280;10652;50.306;8.570;2023-04-15T15:36:48;97516.34;;;7.32;100.00
20987;BME280;10652;50.306;8.570;2023-04-15T15:40:50;97522.56;;;7.29;100.00
20987;BME280;10652;50.306;8.570;2023-04-15T15:44:53;97532.81;;;7.34;100.00
20987;BME280;10652;50.306;8.570;2023-04-15T15:48:55;97530.41;;;7.29;100.00
20987;BME280;10652;50.306;8.570;2023-04-15T15:52:57;97541.56;;;7.33;100.00
20987;BME280;10652;50.306;8.570;2023-04-15T15:56:59;97548.63;;;7.31;100.00
20987;BME280;10652;50.306;8.570;2023-04-15T16:01:02;97540.66;;;7.34;100.00
20987;BME280;10652;50.306;8.570;2023-04-15T16:05:04;97553.72;;;7.34;100.00
20987;BME280;10652;50.306;8.570;2023-04-15T16:09:06;97543.31;;;7.32;100.00
20987;BME280;10652;50.306;8.570;2023-04-15T16:13:09;97559.81;;;7.34;100.00
20987;BME280;10652;50.306;8.570;2023-04-15T16:17:11;97565.03;;;7.34;100.00
20987;BME280;10652;50.306;8.570;2023-04-15T16:21:13;97572.16;;;7.31;100.00
20987;BME280;10652;50.306;8.570;2023-04-15T16:25:16;97572.41;;;7.25;100.00
20987;BME280;10652;50.306;8.570;2023-04-15T16:29:18;97571.59;;;7.23;100.00
20987;BME280;10652;50.306;8.570;2023-04-15T16:33:21;97582.31;;;7.17;100.00
20987;BME280;10652;50.306;8.570;2023-04-15T16:37:23;97584.00;;;7.18;100.00
20987;BME280;10652;50.306;8.570;2023-04-15T16:41:25;97587.94;;;7.28;100.00
20987;BME280;10652;50.306;8.570;2023-04-15T16:45:27;97594.75;;;7.52;100.00
20987;BME280;10652;50.306;8.570;2023-04-15T16:49:29;97602.78;;;7.48;100.00
20987;BME280;10652;50.306;8.570;2023-04-15T16:53:31;97612.78;;;7.38;100.00
20987;BME280;10652;50.306;8.570;2023-04-15T16:57:33;97619.19;;;7.31;100.00
20987;BME280;10652;50.306;8.570;2023-04-15T17:01:55;97620.84;;;7.32;100.00
20987;BME280;10652;50.306;8.570;2023-04-15T17:05:57;97628.69;;;7.32;100.00
20987;BME280;10652;50.306;8.570;2023-04-15T17:10:00;97628.03;;;7.27;100.00
20987;BME280;10652;50.306;8.570;2023-04-15T17:14:02;97635.88;;;7.27;100.00
20987;BME280;10652;50.306;8.570;2023-04-15T17:18:04;97634.84;;;7.31;100.00
20987;BME280;10652;50.306;8.570;2023-04-15T17:22:06;97640.97;;;7.30;100.00
20987;BME280;10652;50.306;8.570;2023-04-15T17:26:08;97644.50;;;7.29;100.00
20987;BME280;10652;50.306;8.570;2023-04-15T17:30:10;97651.53;;;7.27;100.00
20987;BME280;10652;50.306;8.570;2023-04-15T17:34:12;97649.84;;;7.26;100.00
20987;BME280;10652;50.306;8.570;2023-04-15T17:38:16;97650.81;;;7.23;100.00
20987;BME280;10652;50.306;8.570;2023-04-15T17:42:19;97664.69;;;7.25;100.00
20987;BME280;10652;50.306;8.570;2023-04-15T17:46:22;97672.56;;;7.24;100.00
20987;BME280;10652;50.306;8.570;2023-04-15T17:50:24;97679.69;;;7.20;100.00
20987;BME280;10652;50.306;8.570;2023-04-15T17:54:26;97686.78;;;7.17;100.00
20987;BME280;10652;50.306;8.570;2023-04-15T17:58:28;97690.44;;;7.13;100.00
20987;BME280;10652;50.306;8.570;2023-04-15T18:02:31;97694.81;;;7.12;100.00
20987;BME280;10652;50.306;8.570;2023-04-15T18:06:37;97697.34;;;7.14;100.00
20987;BME280;10652;50.306;8.570;2023-04-15T18:10:39;97705.97;;;7.16;100.00
20987;BME280;10652;50.306;8.570;2023-04-15T18:14:41;97711.22;;;7.16;100.00
20987;BME280;10652;50.306;8.570;2023-04-15T18:18:43;97714.72;;;7.15;100.00
20987;BME280;10652;50.306;8.570;2023-04-15T18:22:45;97725.03;;;7.18;100.00
20987;BME280;10652;50.306;8.570;2023-04-15T18:26:47;97722.22;;;7.24;100.00
20987;BME280;10652;50.306;8.570;2023-04-15T18:30:50;97723.91;;;7.25;100.00
20987;BME280;10652;50.306;8.570;2023-04-15T18:34:52;97728.34;;;7.23;100.00
20987;BME280;10652;50.306;8.570;2023-04-15T18:38:56;97738.91;;;7.20;100.00
20987;BME280;10652;50.306;8.570;2023-04-15T18:42:58;97744.44;;;7.12;100.00
20987;BME280;10652;50.306;8.570;2023-04-15T18:47:00;97745.47;;;7.08;100.00
20987;BME280;10652;50.306;8.570;2023-04-15T18:51:03;97749.03;;;7.06;100.00
20987;BME280;10652;50.306;8.570;2023-04-15T18:55:05;97759.59;;;7.03;100.00
20987;BME280;10652;50.306;8.570;2023-04-15T18:59:07;97764.88;;;7.01;100.00
20987;BME280;10652;50.306;8.570;2023-04-15T19:03:29;97777.06;;;7.01;100.00
20987;BME280;10652;50.306;8.570;2023-04-15T19:07:31;97784.13;;;6.99;100.00
20987;BME280;10652;50.306;8.570;2023-04-15T19:11:33;97785.94;;;6.97;100.00
20987;BME280;10652;50.306;8.570;2023-04-15T19:15:35;97791.19;;;6.95;100.00
20987;BME280;10652;50.306;8.570;2023-04-15T19:19:38;97795.69;;;6.91;100.00
20987;BME280;10652;50.306;8.570;2023-04-15T19:23:40;97806.13;;;6.91;100.00
20987;BME280;10652;50.306;8.570;2023-04-15T19:27:43;97803.47;;;6.93;100.00
20987;BME280;10652;50.306;8.570;2023-04-15T19:31:45;97796.41;;;6.95;100.00
20987;BME280;10652;50.306;8.570;2023-04-15T19:35:47;97804.25;;;6.95;100.00
20987;BME280;10652;50.306;8.570;2023-04-15T19:39:53;97807.63;;;6.99;100.00
20987;BME280;10652;50.306;8.570;2023-04-15T19:43:55;97807.50;;;7.02;100.00
20987;BME280;10652;50.306;8.570;2023-04-15T19:47:57;97810.25;;;6.99;100.00
20987;BME280;10652;50.306;8.570;2023-04-15T19:51:59;97812.16;;;6.93;100.00
20987;BME280;10652;50.306;8.570;2023-04-15T19:56:01;97812.25;;;6.90;100.00
20987;BME280;10652;50.306;8.570;2023-04-15T20:00:04;97815.00;;;6.87;100.00
20987;BME280;10652;50.306;8.570;2023-04-15T20:04:06;97821.09;;;6.86;100.00
20987;BME280;10652;50.306;8.570;2023-04-15T20:08:08;97822.03;;;6.85;100.00
20987;BME280;10652;50.306;8.570;2023-04-15T20:12:11;97828.16;;;6.84;100.00
20987;BME280;10652;50.306;8.570;2023-04-15T20:16:33;97834.28;;;6.83;100.00
20987;BME280;10652;50.306;8.570;2023-04-15T20:20:37;97832.56;;;6.82;100.00
20987;BME280;10652;50.306;8.570;2023-04-15T20:24:39;97839.50;;;6.83;100.00
20987;BME280;10652;50.306;8.570;2023-04-15T20:28:41;97840.41;;;6.82;100.00
20987;BME280;10652;50.306;8.570;2023-04-15T20:32:43;97840.41;;;6.82;100.00
20987;BME280;10652;50.306;8.570;2023-04-15T20:36:46;97843.88;;;6.83;100.00
20987;BME280;10652;50.306;8.570;2023-04-15T20:40:48;97844.72;;;6.83;100.00
20987;BME280;10652;50.306;8.570;2023-04-15T20:44:50;97846.53;;;6.81;100.00
20987;BME280;10652;50.306;8.570;2023-04-15T20:48:52;97847.59;;;7.24;100.00
20987;BME280;10652;50.306;8.570;2023-04-15T20:52:54;97835.88;;;7.35;100.00
20987;BME280;10652;50.306;8.570;2023-04-15T20:56:56;97846.91;;;7.19;100.00
20987;BME280;10652;50.306;8.570;2023-04-15T21:00:58;97847.38;;;7.07;100.00
20987;BME280;10652;50.306;8.570;2023-04-15T21:05:03;97851.41;;;6.90;100.00
20987;BME280;10652;50.306;8.570;2023-04-15T21:09:05;97858.91;;;6.76;100.00
20987;BME280;10652;50.306;8.570;2023-04-15T21:13:07;97865.19;;;6.71;100.00
20987;BME280;10652;50.306;8.570;2023-04-15T21:17:09;97862.75;;;6.66;100.00
20987;BME280;10652;50.306;8.570;2023-04-15T21:21:12;97872.38;;;6.64;100.00
20987;BME280;10652;50.306;8.570;2023-04-15T21:25:14;97882.03;;;6.62;100.00
20987;BME280;10652;50.306;8.570;2023-04-15T21:29:16;97887.28;;;6.61;100.00
20987;BME280;10652;50.306;8.570;2023-04-15T21:33:18;97888.00;;;6.66;100.00
20987;BME280;10652;50.306;8.570;2023-04-15T21:37:21;97899.28;;;6.66;100.00
20987;BME280;10652;50.306;8.570;2023-04-15T21:41:23;97902.84;;;6.64;100.00
20987;BME280;10652;50.306;8.570;2023-04-15T21:45:25;97904.59;;;6.63;100.00
20987;BME280;10652;50.306;8.570;2023-04-15T21:49:27;97916.03;;;6.59;100.00
20987;BME280;10652;50.306;8.570;2023-04-15T21:53:29;97918.72;;;6.58;100.00
20987;BME280;10652;50.306;8.570;2023-04-15T21:57:31;97932.63;;;6.58;100.00